<?xml version='1.0' encoding='UTF-8'?><gpx version="1.1" creator="JPX - https://github.com/jenetics/jpx" xmlns="http://www.topografix.com/GPX/1/1"><trk><trkseg><trkpt lat="40.767146693580564" lon="14.703968977569327"><ele>110.0</ele><time>2026-03-29T07:10:22.996Z</time></trkpt><trkpt lat="40.76711764477846" lon="14.703687666003587"><ele>110.0</ele><time>2026-03-29T07:10:23.996Z</time></trkpt><trkpt lat="40.76717916097644" lon="14.703333710042125"><ele>108.33333333333333</ele><time>2026-03-29T07:10:24.996Z</time></trkpt><trkpt lat="40.76719944434052" lon="14.70303975445028"><ele>106.66666666666666</ele><time>2026-03-29T07:10:25.997Z</time></trkpt><trkpt lat="40.76720960539053" lon="14.702766600051032"><ele>105.0</ele><time>2026-03-29T07:10:26.997Z</time></trkpt><trkpt lat="40.76725065474945" lon="14.702477750097591"><ele>104.0</ele><time>2026-03-29T07:10:27.997Z</time></trkpt><trkpt lat="40.767291430806075" lon="14.702185098774281"><ele>103.0</ele><time>2026-03-29T07:10:28.998Z</time></trkpt><trkpt lat="40.7673310554038" lon="14.701888380324759"><ele>102.5</ele><time>2026-03-29T07:10:29.998Z</time></trkpt><trkpt lat="40.76739045821139" lon="14.701585923004655"><ele>102.0</ele><time>2026-03-29T07:10:30.998Z</time></trkpt><trkpt lat="40.767430413239396" lon="14.701293629427793"><ele>100.5</ele><time>2026-03-29T07:10:31.998Z</time></trkpt><trkpt lat="40.76748314021634" lon="14.700999082945636"><ele>99.0</ele><time>2026-03-29T07:10:32.998Z</time></trkpt><trkpt lat="40.767538167485846" lon="14.700696411727822"><ele>99.0</ele><time>2026-03-29T07:10:33.999Z</time></trkpt><trkpt lat="40.7675941312209" lon="14.700385109823609"><ele>99.0</ele><time>2026-03-29T07:10:34.999Z</time></trkpt><trkpt lat="40.76764464580875" lon="14.700078198459384"><ele>97.5</ele><time>2026-03-29T07:10:35.999Z</time></trkpt><trkpt lat="40.767692778275844" lon="14.699764479454439"><ele>96.0</ele><time>2026-03-29T07:10:36.999Z</time></trkpt><trkpt lat="40.76773419051406" lon="14.699445572166809"><ele>92.0</ele><time>2026-03-29T07:10:37.999Z</time></trkpt><trkpt lat="40.76776567252336" lon="14.699117093615753"><ele>88.0</ele><time>2026-03-29T07:10:38.999Z</time></trkpt><trkpt lat="40.76779030982627" lon="14.698780935213806"><ele>88.0</ele><time>2026-03-29T07:10:39.999Z</time></trkpt><trkpt lat="40.76780392812232" lon="14.698444301445441"><ele>87.0</ele><time>2026-03-29T07:10:40.999Z</time></trkpt></trkseg></trk></gpx>